Tiempo atmosférico en la estación meteorológica de Jalance, València/Valencia (372 m.)



Fecha
DESCASC
Temp. máxima en grados centígrados (hora)
DESCASC
Temp. mínima en grados centígrados (hora)
DESCASC
Temp. media en grados centígrados
DESCASC
Racha de viento máxima en m/sg (hora)
DESCASC
Velocidad máxima media en intervalos de 10 minutos(hora)
DESCASC
Precipitaciones diarias en mm
DESCASC
Precipitaciones de 00:00 a 06:00 en mm
DESCASC
Precipitaciones de 06:00 a 12:00 en mm
DESCASC
Precipitaciones de 12:00 a 18:00 en mm
DESCASC
Precipitaciones de 18:00 a 24:00 en mm
DESCASC
17-10-2019 24.1 (14:40) 4.9 (08:40) 14.5 10 (13:50) 3.89 (16:20) 0 0 0 0 0
16-10-2019 23.1 (16:50) 3.8 (08:30) 13.5 8.33 (14:00) 4.72 (14:00) 0 0 0 0 0
15-10-2019 20.5 (17:20) 11.1 (08:40) 15.8 11.39 (15:00) 4.72 (01:50) 0 0 0 0 0
14-10-2019 26.2 (16:20) 14.8 (08:10) 20.5 14.17 (18:10) 5.83 (18:10) 0 0 0 0 0
13-10-2019 28 (15:30) 14.1 (00:00) 21.1 7.5 (16:00) 5 (16:00) 0 0 0 0 0
12-10-2019 25.3 (16:10) 15.1 (00:00) 20.2 7.5 (16:10) 3.33 (15:30) 0 0 0 0 0
10-10-2019 22.5 (18:00) 16.6 (00:00) 19.6 6.94 (14:00) 4.17 (13:00) 0 0 0 0 0
09-10-2019 30.8 (15:20) 12.5 (00:00) 21.6 6.39 (16:50) 3.61 (17:10) 0 0 0 0 0
08-10-2019 29.1 (16:50) 11.4 (00:00) 20.3 6.67 (14:10) 3.61 (11:50) 0 0 0 0 0
07-10-2019 30.7 (15:30) 10.7 (00:00) 20.7 10.28 (15:50) 5.28 (20:10) 0 0 0 0 0
06-10-2019 30.3 (17:40) 9.9 (00:00) 20.1 8.61 (20:40) 5 (21:00) 0 0 0 0 0
05-10-2019 31.1 (17:10) 8.7 (08:00) 19.9 6.39 (18:50) 3.89 (19:00) 0 0 0 0 0
04-10-2019 31.3 (17:00) 8.4 (00:00) 19.8 6.67 (16:10) 3.06 (14:50) 0 0 0 0 0
03-10-2019 29 (16:50) 9.6 (00:00) 19.3 11.11 (20:40) 4.17 (20:40) 0 0 0 0 0
02-10-2019 28.2 (16:50) 14.1 (00:00) 21.2 11.11 (01:50) 5.56 (01:50) 0 0 0 0 0
01-10-2019 31.4 (16:30) 14.8 (00:00) 23.1 11.11 (16:10) 4.72 (17:10) 0 0 0 0 0
30-09-2019 30.6 (15:10) 10.1 (00:00) 20.4 6.11 (17:00) 3.33 (17:00) 0 0 0 0 0
29-09-2019 33.2 (17:00) 15.4 (00:00) 24.3 7.5 (17:50) 3.89 (17:50) 0 0 0 0 0
28-09-2019 28.7 (17:30) 11.3 (00:00) 20 8.06 (16:40) 4.17 (14:30) 0 0 0 0 0
27-09-2019 32.1 (17:20) 13.5 (00:00) 22.8 8.61 (15:40) 3.61 (15:50) 0 0 0 0 0
26-09-2019 30.9 (17:30) 12.5 (00:00) 21.7 8.06 (20:30) 4.72 (20:30) 0 0 0 0 0
25-09-2019 28.2 (17:10) 16.1 (00:00) 22.2 11.39 (14:50) 4.17 (15:40) 0 0 0 0 0
24-09-2019 30.5 (16:30) 11.6 (00:00) 21.1 10.83 (15:20) 3.61 (13:10) 0 0 0 0 0
23-09-2019 27.7 (15:50) 11.9 (00:00) 19.8 8.89 (15:10) 3.89 (01:30) 0 0 0 0 0
22-09-2019 28.4 (17:00) 16.8 (00:00) 22.6 10.28 (14:50) 4.17 (15:10) 0 0 0 0 0
21-09-2019 27.4 (16:40) 17.2 (00:00) 22.3 5.28 (17:00) 2.5 (16:50) 2.4 0 0 1 1.4
20-09-2019 24.8 (15:20) 16.1 (00:00) 20.4 6.67 (13:40) 3.61 (13:40) 0 0 0 0 0
19-09-2019 29.7 (15:10) 14.7 (00:00) 22.2 6.11 (16:50) 3.06 (15:30) 0 0 0 0 0

Gráficas

Temp. máximas Temp. mínimas Temp. medias Precipitaciones Rachas de viento máximas Velocidades máximas media en intervalos de 10 minutos

Datos horarios

Fecha y hora oficial Temperatura (ºC) Velocidad del viento (km/h) Dirección del viento Racha (km/h) Dirección de racha Precipitación (mm) Presión (hPa) Tendencia (hPa) Humedad (%)
2019-10-18 23:00:00 15.5 0 Calma 3 Norte 0 -- -- 74
2019-10-18 22:00:00 16.9 2 Norte 5 Norte 0 -- -- 71
2019-10-18 21:00:00 18.4 0 Calma 5 Sudeste 0 -- -- 67
2019-10-18 20:00:00 20.9 0 Calma 8 Noroeste 0 -- -- 59
2019-10-18 19:00:00 23.1 3 Oeste 10 Norte 0 -- -- 55
2019-10-18 18:00:00 24.6 5 Noroeste 21 Noroeste 0 -- -- 49
2019-10-18 17:00:00 25.5 8 Norte 26 Sur 0 -- -- 46
2019-10-18 16:00:00 25.4 9 Norte 29 Noroeste 0 -- -- 47
2019-10-18 15:00:00 24.7 14 Noroeste 27 Sur 0 -- -- 50
2019-10-18 14:00:00 23.4 9 Sur 23 Sur 0 -- -- 51
2019-10-18 13:00:00 21.8 4 Este 13 Sudeste 0 -- -- 59
2019-10-18 12:00:00 17.4 3 Este 6 Este 0 -- -- 64
2019-10-18 11:00:00 14.3 0 Calma 6 Sudeste 0 -- -- 72
2019-10-18 10:00:00 11.5 0 Calma 4 Norte 0 -- -- 85
2019-10-18 09:00:00 10.2 0 Calma 3 Sudoeste 0 -- -- 88
2019-10-18 08:00:00 9.6 0 Calma 4 Sudeste 0 -- -- 89
2019-10-18 07:00:00 9.7 0 Calma 3 Oeste 0 -- -- 88
2019-10-18 06:00:00 9.5 0 Calma 3 Noroeste 0 -- -- 88
2019-10-18 05:00:00 9.9 0 Calma 2 Norte 0 -- -- 87
2019-10-18 04:00:00 10.6 0 Calma 3 Sudeste 0 -- -- 84
2019-10-18 03:00:00 11.2 0 Calma 3 Oeste 0 -- -- 82
2019-10-18 02:00:00 11.8 0 Calma 5 Sudeste 0 -- -- 79
2019-10-18 01:00:00 12.8 0 Calma 3 Oeste 0 -- -- 76
2019-10-18 00:00:00 13.3 0 Calma 3 Norte 0 -- -- 72
2019-10-17 23:00:00 15.2 0 Calma 3 Sudeste 0 -- -- 66
2019-10-17 22:00:00 17 0 Calma 14 Oeste 0 -- -- 60
2019-10-17 21:00:00 20.3 5 Noroeste 16 Oeste 0 -- -- 51
2019-10-17 20:00:00 20.8 2 Noroeste 22 Noroeste 0 -- -- 49
2019-10-17 19:00:00 22.5 6 Norte 25 Norte 0 -- -- 44
2019-10-17 18:00:00 23.1 6 Este 23 Noroeste 0 -- -- 42
2019-10-17 17:00:00 23 5 Nordeste 27 Noroeste 0 -- -- 39
2019-10-17 16:00:00 23.4 9 Noroeste 33 Oeste 0 -- -- 38
2019-10-17 15:00:00 23.4 12 Noroeste 34 Norte 0 -- -- 34
2019-10-17 14:00:00 22.9 9 Nordeste 36 Sudoeste 0 -- -- 34
2019-10-17 13:00:00 21.3 11 Sudeste 30 Noroeste 0 -- -- 40
2019-10-17 12:00:00 18.6 5 Este 9 Este 0 -- -- 46
2019-10-17 11:00:00 14.5 4 Nordeste 9 Nordeste 0 -- -- 52
2019-10-17 10:00:00 10.4 2 Sudeste 5 Este 0 -- -- 67
2019-10-17 09:00:00 5.5 0 Calma 2 Sudeste 0 -- -- 84
2019-10-17 08:00:00 5.1 0 Calma 3 Sur 0 -- -- 83
2019-10-17 07:00:00 5.8 0 Calma 2 Oeste 0 -- -- 79
2019-10-17 06:00:00 6.3 0 Calma 3 Oeste 0 -- -- 78
2019-10-17 05:00:00 6.9 0 Calma 3 Sudeste 0 -- -- 75
2019-10-17 04:00:00 7.8 0 Calma 2 Nordeste 0 -- -- 72
2019-10-17 03:00:00 8.7 0 Calma 4 Noroeste 0 -- -- 68
2019-10-17 02:00:00 9.6 0 Calma 3 Norte 0 -- -- 64
2019-10-17 01:00:00 10.3 0 Calma 5 Sudeste 0 -- -- 61
2019-10-17 00:00:00 11.3 0 Calma 3 Norte 0 -- -- 56
2019-10-16 23:00:00 12.4 0 Calma 5 Noroeste 0 -- -- 53
2019-10-16 22:00:00 13.3 0 Calma 4 Norte 0 -- -- 50
2019-10-16 21:00:00 14.5 0 Calma 3 Norte 0 -- -- 47
2019-10-16 20:00:00 17 0 Calma 4 Oeste 0 -- -- 40
2019-10-16 19:00:00 20.7 4 Oeste 14 Oeste 0 -- -- 33
2019-10-16 18:00:00 22.7 6 Sudoeste 20 Noroeste 0 -- -- 26
2019-10-16 17:00:00 22.8 9 Norte 28 Norte 0 -- -- 27
2019-10-16 16:00:00 22.4 10 Sudoeste 29 Sur 0 -- -- 29
2019-10-16 15:00:00 21.4 12 Sur 29 Sur 0 -- -- 33
2019-10-16 14:00:00 20.2 17 Sur 30 Sur 0 -- -- 36
2019-10-16 13:00:00 19.1 14 Sur 29 Sudoeste 0 -- -- 39
2019-10-16 12:00:00 15.7 2 Sudeste 8 Este 0 -- -- 49
2019-10-16 11:00:00 12.4 2 Sudeste 6 Este 0 -- -- 56
2019-10-16 10:00:00 9 0 Calma 4 Este 0 -- -- 66
2019-10-16 09:00:00 4.9 0 Calma 2 Sudeste 0 -- -- 84
2019-10-16 08:00:00 3.9 0 Calma 3 Sur 0 -- -- 85
2019-10-16 07:00:00 4.5 0 Calma 2 Sudeste 0 -- -- 82
2019-10-16 06:00:00 5 0 Calma 3 Noroeste 0 -- -- 80
2019-10-16 05:00:00 5.6 0 Calma 3 Norte 0 -- -- 77
2019-10-16 04:00:00 6.4 0 Calma 3 Sudeste 0 -- -- 73
2019-10-16 03:00:00 7.5 0 Calma 2 Este 0 -- -- 68
2019-10-16 02:00:00 8.4 0 Calma 3 Sudoeste 0 -- -- 66
2019-10-16 01:00:00 9.8 0 Calma 5 Sudeste 0 -- -- 59
2019-10-16 00:00:00 11.5 3 Norte 5 Nordeste 0 -- -- 53
2019-10-15 23:00:00 12.5 0 Calma 7 Este 0 -- -- 50
2019-10-15 22:00:00 14 2 Sudoeste 9 Oeste 0 -- -- 45
2019-10-15 21:00:00 17.3 3 Este 23 Sudoeste 0 -- -- 35
2019-10-15 20:00:00 18.4 10 Noroeste 21 Oeste 0 -- -- 31
2019-10-15 19:00:00 18.9 8 Oeste 28 Noroeste 0 -- -- 31
2019-10-15 18:00:00 20.2 9 Noroeste 31 Noroeste 0 -- -- 27
2019-10-15 17:00:00 20.4 9 Norte 40 Noroeste 0 -- -- 31
2019-10-15 16:00:00 19.7 11 Norte 35 Noroeste 0 -- -- 33
2019-10-15 15:00:00 19.5 15 Noroeste 41 Noroeste 0 -- -- 33
2019-10-15 14:00:00 18.5 13 Sudoeste 32 Sudoeste 0 -- -- 39
2019-10-15 13:00:00 16.8 12 Norte 35 Norte 0 -- -- 43
2019-10-15 12:00:00 15.5 14 Noroeste 36 Noroeste 0 -- -- 47
2019-10-15 11:00:00 14.7 7 Norte 31 Norte 0 -- -- 51
2019-10-15 10:00:00 13.1 9 Norte 35 Noroeste 0 -- -- 58
2019-10-15 09:00:00 11.6 6 Sur 19 Noroeste 0 -- -- 67
2019-10-15 08:00:00 11.4 6 Oeste 20 Sudoeste 0 -- -- 69
2019-10-15 07:00:00 11.9 3 Norte 26 Oeste 0 -- -- 68
2019-10-15 06:00:00 12.4 4 Nordeste 23 Noroeste 0 -- -- 71
2019-10-15 05:00:00 13.4 10 Noroeste 35 Noroeste 0 -- -- 68
2019-10-15 04:00:00 14.1 10 Noroeste 30 Noroeste 0 -- -- 65
2019-10-15 03:00:00 14.2 11 Noroeste 35 Noroeste 0 -- -- 64
2019-10-15 02:00:00 14.7 10 Oeste 36 Oeste 0 -- -- 62
2019-10-15 01:00:00 15.8 7 Norte 28 Noroeste 0 -- -- 55
2019-10-15 00:00:00 16.3 5 Nordeste 30 Noroeste 0 -- -- 58
2019-10-14 23:00:00 17.1 8 Noroeste 37 Noroeste 0 -- -- 55
2019-10-14 22:00:00 20.6 8 Noroeste 23 Norte 0 -- -- 46
2019-10-14 21:00:00 21.7 15 Noroeste 44 Noroeste 0 -- -- 43
2019-10-14 20:00:00 23 12 Noroeste 30 Noroeste 0 -- -- 41
2019-10-14 19:00:00 23.6 9 Norte 51 Norte 0 -- -- 38
2019-10-14 18:00:00 25.2 9 Norte 34 Noroeste 0 -- -- 40
2019-10-14 17:00:00 25.9 7 Norte 27 Sur 0 -- -- 43
2019-10-14 16:00:00 25.7 9 Sur 21 Oeste 0 -- -- 47
2019-10-14 15:00:00 24.1 4 Nordeste 19 Noroeste 0 -- -- 56
2019-10-14 14:00:00 23.5 5 Noroeste 14 Nordeste 0 -- -- 59
2019-10-14 13:00:00 23.1 5 Nordeste 15 Nordeste 0 -- -- 63
2019-10-14 12:00:00 20.4 4 Noroeste 8 Sudeste 0 -- -- 78
2019-10-14 11:00:00 20.7 5 Sudeste 11 Este 0 -- -- 75
2019-10-14 10:00:00 19.7 4 Este 11 Noroeste 0 -- -- 80
2019-10-14 09:00:00 15.8 0 Calma 4 Noroeste 0 -- -- 92
2019-10-14 08:00:00 14.9 2 Noroeste 5 Norte 0 -- -- 93
2019-10-14 07:00:00 15.3 4 Noroeste 6 Norte 0 -- -- 94
2019-10-14 06:00:00 15.6 0 Calma 5 Sudoeste 0 -- -- 92
2019-10-14 05:00:00 16.3 2 Sudeste 8 Sudeste 0 -- -- 92
2019-10-14 04:00:00 16.6 0 Calma 7 Oeste 0 -- -- 91
2019-10-14 03:00:00 16.7 0 Calma 3 Noroeste 0 -- -- 92
2019-10-14 02:00:00 16.7 0 Calma 5 Sudeste 0 -- -- 92
2019-10-14 01:00:00 17.2 0 Calma 3 Noroeste 0 -- -- 91
2019-10-14 00:00:00 17.8 0 Calma 2 Sudeste 0 -- -- 88
2019-10-13 23:00:00 18.4 0 Calma 5 Sudeste 0 -- -- 86
2019-10-13 22:00:00 19.5 0 Calma 6 Norte 0 -- -- 82
2019-10-13 21:00:00 21.1 4 Noroeste 10 Nordeste 0 -- -- 78
2019-10-13 20:00:00 23 3 Este 13 Nordeste 0 -- -- 71
2019-10-13 19:00:00 24.9 4 Nordeste 16 Este 0 -- -- 61
2019-10-13 18:00:00 26.1 9 Norte 26 Nordeste 0 -- -- 58
2019-10-13 17:00:00 27.3 9 Norte 25 Norte 0 -- -- 55
2019-10-13 16:00:00 26.9 18 Norte 27 Norte 0 -- -- 54
2019-10-13 15:00:00 27.1 11 Norte 19 Nordeste 0 -- -- 53
2019-10-13 14:00:00 26.7 4 Norte 12 Este 0 -- -- 49
2019-10-13 13:00:00 24.8 4 Sudeste 9 Nordeste 0 -- -- 56
2019-10-13 12:00:00 22.8 4 Nordeste 8 Este 0 -- -- 65
2019-10-13 11:00:00 19.9 0 Calma 6 Este 0 -- -- 75
2019-10-13 10:00:00 17 0 Calma 3 Norte 0 -- -- 88
2019-10-13 09:00:00 14.4 0 Calma 2 Sudeste 0 -- -- 94
2019-10-13 08:00:00 14.5 0 Calma 4 Sudeste 0 -- -- 93
2019-10-13 07:00:00 15.3 0 Calma 2 Oeste 0 -- -- 91
2019-10-13 06:00:00 16 0 Calma 3 Este 0 -- -- 91
2019-10-13 05:00:00 16 0 Calma 4 Este 0 -- -- 92
2019-10-13 04:00:00 16.2 0 Calma 6 Norte 0 -- -- 92
2019-10-13 03:00:00 15.8 0 Calma 8 Sudeste 0 -- -- 92
2019-10-13 02:00:00 16.8 0 Calma 6 Sudeste 0 -- -- 89
2019-10-13 01:00:00 18.1 0 Calma 7 Noroeste 0 -- -- 84
2019-10-13 00:00:00 19.3 5 Noroeste 9 Este 0 -- -- 81
2019-10-12 23:00:00 20.8 3 Este 12 Sudeste 0 -- -- 74
2019-10-12 22:00:00 21.1 4 Sudeste 15 Sudeste 0 -- -- 73
2019-10-12 21:00:00 21.5 2 Nordeste 11 Este 0 -- -- 73
2019-10-12 20:00:00 22.1 4 Este 12 Este 0 -- -- 70
2019-10-12 19:00:00 23.2 5 Este 14 Nordeste 0 -- -- 68
2019-10-12 18:00:00 23.8 7 Este 20 Sudeste 0 -- -- 64
2019-10-12 17:00:00 24.5 5 Nordeste 27 Norte 0 -- -- 63
2019-10-12 16:00:00 24.9 8 Norte 24 Norte 0 -- -- 63
2019-10-12 15:00:00 24.7 8 Este 20 Este 0 -- -- 61
2019-10-12 14:00:00 24.4 8 Este 20 Este 0 -- -- 62
2019-10-12 13:00:00 23.8 7 Nordeste 17 Este 0 -- -- 62
2019-10-12 12:00:00 22.9 3 Este 8 Nordeste 0 -- -- 66
2019-10-12 11:00:00 20.8 2 Sudeste 5 Este 0 -- -- 76
2019-10-12 10:00:00 17.8 2 Sudeste 5 Sudeste 0 -- -- 89
2019-10-12 09:00:00 15.5 0 Calma 3 Sudeste 0 -- -- 94
2019-10-12 08:00:00 15.3 0 Calma 3 Sudeste 0 -- -- 93
2019-10-12 07:00:00 15.9 0 Calma 2 Sudoeste 0 -- -- 91
2019-10-12 06:00:00 16.3 0 Calma 2 Norte 0 -- -- 90
2019-10-12 05:00:00 16.9 0 Calma 0 Calma 0 -- -- 89
2019-10-12 04:00:00 16.9 0 Calma 4 Noroeste 0 -- -- 90
2019-10-12 03:00:00 17.4 3 Noroeste 4 Noroeste 0 -- -- 90
2019-10-12 02:00:00 18 0 Calma 2 Sudeste 0 -- -- 87
2019-10-12 01:00:00 18.3 0 Calma 2 Norte 0 -- -- 87
2019-10-12 00:00:00 19 0 Calma 10 Norte 0 -- -- 84
2019-10-11 23:00:00 20.3 6 Noroeste 12 Norte 0 -- -- 82
2019-10-11 22:00:00 20.4 9 Noroeste 13 Noroeste 0 -- -- 81
2019-10-11 21:00:00 21 8 Noroeste 16 Norte 0 -- -- 78
2019-10-11 20:00:00 22.6 5 Noroeste 17 Nordeste 0 -- -- 72
2019-10-11 19:00:00 24.7 4 Este 18 Norte 0 -- -- 63
2019-10-11 18:00:00 25.7 12 Norte 21 Nordeste 0 -- -- 57
2019-10-11 17:00:00 26.9 10 Norte 23 Norte 0 -- -- 52
2019-10-11 16:00:00 26.6 10 Nordeste 19 Nordeste 0 -- -- 52
2019-10-11 15:00:00 26 5 Norte 14 Nordeste 0 -- -- 54
2019-10-11 14:00:00 25.8 4 Sur 12 Este 0 -- -- 53
2019-10-11 13:00:00 24.1 3 Sur 10 Sudeste 0 -- -- 58
2019-10-11 12:00:00 23 3 Sudeste 10 Este 0 -- -- 62
2019-10-11 11:00:00 21.4 4 Sudeste 8 Este 0 -- -- 70
2019-10-11 10:00:00 18.7 3 Este 6 Este 0 -- -- 82
2019-10-11 09:00:00 15.2 0 Calma 2 Noroeste 0 -- -- 93
2019-10-11 08:00:00 15.5 0 Calma 4 Noroeste 0 -- -- 91
2019-10-11 07:00:00 16.6 2 Noroeste 4 Noroeste 0 -- -- 90
2019-10-11 06:00:00 17.8 0 Calma 3 Sudeste 0 -- -- 88
2019-10-11 05:00:00 18.1 0 Calma 2 Nordeste 0 -- -- 88
2019-10-11 04:00:00 18.4 0 Calma 5 Noroeste 0 -- -- 87
2019-10-11 03:00:00 18.6 4 Noroeste 8 Noroeste 0 -- -- 87
2019-10-11 02:00:00 18 0 Calma 5 Norte 0 -- -- 86
2019-10-11 01:00:00 18.5 0 Calma 5 Norte 0 -- -- 84
2019-10-11 00:00:00 19.2 0 Calma 7 Sudeste 0 -- -- 83
2019-10-10 23:00:00 19.4 0 Calma 7 Sudeste 0 -- -- 82
2019-10-10 22:00:00 19.4 2 Sur 6 Sudeste 0 -- -- 81
2019-10-10 21:00:00 18.8 0 Calma 6 Sudoeste 0 -- -- 82
2019-10-10 20:00:00 19.3 2 Sudoeste 14 Este 0 -- -- 78
2019-10-10 19:00:00 21.2 4 Sur 15 Este 0 -- -- 72
2019-10-10 18:00:00 22.5 5 Este 17 Norte 0 -- -- 66
2019-10-10 17:00:00 21.5 10 Norte 24 Norte 0 -- -- 70
2019-10-10 16:00:00 21.3 13 Norte 22 Norte 0 -- -- 72
2019-10-10 15:00:00 21.7 8 Norte 22 Norte 0 -- -- 72
2019-10-10 14:00:00 20.3 12 Norte 25 Noroeste 0 -- -- 77
2019-10-10 13:00:00 20.2 15 Norte 23 Norte 0 -- -- 79
2019-10-10 12:00:00 19.8 10 Norte 21 Noroeste 0 -- -- 81
2019-10-10 11:00:00 20 11 Norte 17 Noroeste 0 -- -- 81
2019-10-10 10:00:00 19.3 7 Norte 11 Noroeste 0 -- -- 82
2019-10-10 09:00:00 18.7 0 Calma 3 Sur 0 -- -- 80
2019-10-10 08:00:00 18.1 0 Calma 2 Norte 0 -- -- 85
2019-10-10 07:00:00 17.7 0 Calma 8 Sur 0 -- -- 85
2019-10-10 06:00:00 17.4 0 Calma 3 Sudeste 0 -- -- 85
2019-10-10 05:00:00 17 0 Calma 4 Este 0 -- -- 86
2019-10-10 04:00:00 16.8 3 Noroeste 5 Este 0 -- -- 84
2019-10-10 03:00:00 18.2 0 Calma 9 Norte 0 -- -- 80
2019-10-10 02:00:00 19.1 0 Calma 5 Sudeste 0 -- -- 79
2019-10-10 01:00:00 20.3 0 Calma 8 Este 0 -- -- 75
2019-10-10 00:00:00 20.4 0 Calma 5 Este 0 -- -- 77
2019-10-09 23:00:00 20.4 3 Este 12 Norte 0 -- -- 77
2019-10-09 22:00:00 20.7 5 Noroeste 10 Norte 0 -- -- 76
2019-10-09 21:00:00 21.8 4 Noroeste 17 Norte 0 -- -- 72
2019-10-09 20:00:00 23.1 9 Norte 17 Norte 0 -- -- 69
2019-10-09 19:00:00 25.3 9 Norte 23 Norte 0 -- -- 66
2019-10-09 18:00:00 28 8 Norte 23 Nordeste 0 -- -- 54
2019-10-09 17:00:00 28.8 11 Norte 23 Norte 0 -- -- 51
2019-10-09 16:00:00 29.7 10 Nordeste 19 Nordeste 0 -- -- 49
2019-10-09 15:00:00 30.2 5 Sur 10 Sur 0 -- -- 39
2019-10-09 14:00:00 28.3 6 Sur 12 Sudeste 0 -- -- 46
2019-10-09 13:00:00 26.4 3 Sudeste 12 Norte 0 -- -- 54
2019-10-09 12:00:00 23.4 2 Nordeste 8 Sudeste 0 -- -- 63
2019-10-09 11:00:00 20.4 4 Este 8 Sudeste 0 -- -- 72
2019-10-09 10:00:00 17.2 3 Sudeste 4 Este 0 -- -- 82
2019-10-09 09:00:00 13.5 0 Calma 3 Sudeste 0 -- -- 94
2019-10-09 08:00:00 12.9 0 Calma 2 Sudoeste 0 -- -- 93
2019-10-09 07:00:00 13.3 0 Calma 7 Norte 0 -- -- 92
2019-10-09 06:00:00 13.8 0 Calma 3 Sudoeste 0 -- -- 92
2019-10-09 05:00:00 14.2 0 Calma 6 Noroeste 0 -- -- 92
2019-10-09 04:00:00 14.8 0 Calma 4 Sudeste 0 -- -- 90
2019-10-09 03:00:00 15.4 0 Calma 3 Noroeste 0 -- -- 88
2019-10-09 02:00:00 16.1 0 Calma 4 Sudeste 0 -- -- 86
2019-10-09 01:00:00 17.1 0 Calma 6 Noroeste 0 -- -- 83
2019-10-09 00:00:00 18 0 Calma 8 Oeste 0 -- -- 79
2019-10-08 23:00:00 19.7 2 Norte 8 Oeste 0 -- -- 74
2019-10-08 22:00:00 20.5 0 Calma 8 Noroeste 0 -- -- 71
2019-10-08 21:00:00 22.3 3 Noroeste 8 Este 0 -- -- 65
2019-10-08 20:00:00 23.6 5 Norte 12 Este 0 -- -- 59
2019-10-08 19:00:00 26.9 4 Sudeste 18 Sudeste 0 -- -- 49
2019-10-08 18:00:00 28.5 10 Sudeste 21 Nordeste 0 -- -- 44
2019-10-08 17:00:00 29.1 9 Sudeste 19 Sudeste 0 -- -- 42
2019-10-08 16:00:00 28.8 8 Este 17 Este 0 -- -- 43
2019-10-08 15:00:00 27.8 10 Este 24 Sudeste 0 -- -- 44
2019-10-08 14:00:00 26.8 10 Este 22 Este 0 -- -- 49
2019-10-08 13:00:00 25.2 11 Sudeste 21 Este 0 -- -- 57
2019-10-08 12:00:00 22.9 9 Este 23 Este 0 -- -- 64
2019-10-08 11:00:00 19.8 0 Calma 7 Sudeste 0 -- -- 71
2019-10-08 10:00:00 16.4 3 Sudeste 6 Este 0 -- -- 79
2019-10-08 09:00:00 12.6 0 Calma 3 Sudeste 0 -- -- 93
2019-10-08 08:00:00 11.5 0 Calma 4 Sudeste 0 -- -- 93
2019-10-08 07:00:00 11.8 0 Calma 6 Sudeste 0 -- -- 92
2019-10-08 06:00:00 12.3 0 Calma 2 Sudeste 0 -- -- 91
2019-10-08 05:00:00 12.8 0 Calma 3 Norte 0 -- -- 89
2019-10-08 04:00:00 13.4 0 Calma 5 Sur 0 -- -- 88
2019-10-08 03:00:00 13.9 0 Calma 5 Sudeste 0 -- -- 86
2019-10-08 02:00:00 14.5 0 Calma 3 Norte 0 -- -- 84
2019-10-08 01:00:00 15.2 0 Calma 4 Sudeste 0 -- -- 81
2019-10-08 00:00:00 16.2 2 Norte 6 Sudeste 0 -- -- 77
2019-10-07 23:00:00 17.8 2 Norte 10 Noroeste 0 -- -- 71
2019-10-07 22:00:00 18.8 3 Noroeste 19 Norte 0 -- -- 68
2019-10-07 21:00:00 19.9 14 Noroeste 28 Norte 0 -- -- 65
2019-10-07 20:00:00 22 16 Noroeste 24 Noroeste 0 -- -- 58
2019-10-07 19:00:00 23.9 14 Noroeste 21 Oeste 0 -- -- 54
2019-10-07 18:00:00 26.6 14 Noroeste 23 Noroeste 0 -- -- 46
2019-10-07 17:00:00 27.2 14 Noroeste 26 Noroeste 0 -- -- 42
2019-10-07 16:00:00 29.7 12 Nordeste 37 Norte 0 -- -- 31
2019-10-07 15:00:00 30.1 10 Norte 23 Norte 0 -- -- 26
2019-10-07 14:00:00 28.6 11 Noroeste 27 Noroeste 0 -- -- 28
2019-10-07 13:00:00 27.2 12 Noroeste 24 Noroeste 0 -- -- 30
2019-10-07 12:00:00 24.7 8 Este 19 Noroeste 0 -- -- 40
2019-10-07 11:00:00 20.2 4 Norte 13 Nordeste 0 -- -- 52
2019-10-07 10:00:00 16.3 3 Este 6 Nordeste 0 -- -- 67
2019-10-07 09:00:00 12.1 0 Calma 5 Este 0 -- -- 88
2019-10-07 08:00:00 10.8 0 Calma 8 Norte 0 -- -- 91
2019-10-07 07:00:00 11.1 0 Calma 3 Noroeste 0 -- -- 90
2019-10-07 06:00:00 11.5 0 Calma 4 Sudeste 0 -- -- 90
2019-10-07 05:00:00 12.2 0 Calma 5 Noroeste 0 -- -- 88
2019-10-07 04:00:00 13.1 0 Calma 4 Sudeste 0 -- -- 87
2019-10-07 03:00:00 14 0 Calma 3 Sudeste 0 -- -- 85
2019-10-07 02:00:00 14.9 0 Calma 4 Nordeste 0 -- -- 84
2019-10-07 01:00:00 16 0 Calma 3 Sudeste 0 -- -- 81
2019-10-07 00:00:00 17.2 0 Calma 3 Este 0 -- -- 77
2019-10-06 23:00:00 19.3 0 Calma 6 Noroeste 0 -- -- 74
2019-10-06 22:00:00 22 5 Norte 21 Norte 0 -- -- 69
2019-10-06 21:00:00 23.9 18 Norte 31 Noroeste 0 -- -- 62
2019-10-06 20:00:00 25.2 3 Noroeste 11 Oeste 0 -- -- 38
2019-10-06 19:00:00 26.9 3 Noroeste 27 Noroeste 0 -- -- 36
2019-10-06 18:00:00 30.1 5 Oeste 29 Noroeste 0 -- -- 29
2019-10-06 17:00:00 29.5 4 Sudoeste 22 Sudeste 0 -- -- 31
2019-10-06 16:00:00 29.7 11 Sur 24 Noroeste 0 -- -- 32
2019-10-06 15:00:00 29.4 8 Oeste 18 Noroeste 0 -- -- 33
2019-10-06 14:00:00 27.8 4 Sudeste 11 Sudeste 0 -- -- 40
2019-10-06 13:00:00 24.2 5 Este 8 Sudeste 0 -- -- 49
2019-10-06 12:00:00 20.9 3 Sudeste 8 Este 0 -- -- 58
2019-10-06 11:00:00 17.8 2 Sudeste 7 Este 0 -- -- 68
2019-10-06 10:00:00 14.3 5 Norte 10 Norte 0 -- -- 86
2019-10-06 09:00:00 11 0 Calma 3 Sudeste 0 -- -- 95
2019-10-06 08:00:00 9.9 0 Calma 2 Sudoeste 0 -- -- 94
2019-10-06 07:00:00 10.5 0 Calma 3 Sudeste 0 -- -- 93
2019-10-06 06:00:00 11 0 Calma 2 Sudeste 0 -- -- 92
2019-10-06 05:00:00 11.9 0 Calma 2 Sudeste 0 -- -- 91
2019-10-06 04:00:00 12.7 0 Calma 2 Sudoeste 0 -- -- 91
2019-10-06 03:00:00 13.4 0 Calma 0 Calma 0 -- -- 90
2019-10-06 02:00:00 14.4 0 Calma 2 Sudoeste 0 -- -- 89
2019-10-06 01:00:00 15.3 0 Calma 2 Sudoeste 0 -- -- 88
2019-10-06 00:00:00 16.6 0 Calma 3 Nordeste 0 -- -- 84
2019-10-05 23:00:00 18.1 0 Calma 8 Noroeste 0 -- -- 81
2019-10-05 22:00:00 20.2 5 Noroeste 13 Noroeste 0 -- -- 77
2019-10-05 21:00:00 21.4 8 Noroeste 19 Noroeste 0 -- -- 73
2019-10-05 20:00:00 22.8 13 Noroeste 21 Noroeste 0 -- -- 68
2019-10-05 19:00:00 25.3 14 Noroeste 23 Noroeste 0 -- -- 57
2019-10-05 18:00:00 30.4 8 Noroeste 20 Noroeste 0 -- -- 27
2019-10-05 17:00:00 31 6 Noroeste 19 Norte 0 -- -- 26
2019-10-05 16:00:00 30.2 6 Este 13 Sudeste 0 -- -- 30
2019-10-05 15:00:00 29.3 5 Sudeste 16 Sudeste 0 -- -- 33
2019-10-05 14:00:00 27.6 4 Sur 10 Sudeste 0 -- -- 36
2019-10-05 13:00:00 24.8 3 Sudoeste 10 Este 0 -- -- 41
2019-10-05 12:00:00 21.6 2 Sudoeste 8 Sudeste 0 -- -- 46
2019-10-05 11:00:00 18.4 3 Este 5 Sudeste 0 -- -- 54
2019-10-05 10:00:00 14.1 0 Calma 5 Este 0 -- -- 69
2019-10-05 09:00:00 10.3 0 Calma 3 Sudeste 0 -- -- 83
2019-10-05 08:00:00 8.7 0 Calma 3 Oeste 0 -- -- 86
2019-10-05 07:00:00 9.5 0 Calma 4 Norte 0 -- -- 82
2019-10-05 06:00:00 10.1 3 Norte 9 Noroeste 0 -- -- 79
2019-10-05 05:00:00 10.8 0 Calma 5 Sur 0 -- -- 76
2019-10-05 04:00:00 11.7 0 Calma 4 Sudeste 0 -- -- 73
2019-10-05 03:00:00 12.5 0 Calma 3 Norte 0 -- -- 70
2019-10-05 02:00:00 12.9 0 Calma 4 Noroeste 0 -- -- 68
2019-10-05 01:00:00 13.7 0 Calma 3 Noroeste 0 -- -- 65
2019-10-05 00:00:00 15 0 Calma 2 Sur 0 -- -- 59
2019-10-04 23:00:00 16.6 0 Calma 3 Sur 0 -- -- 55
2019-10-04 22:00:00 18 0 Calma 5 Norte 0 -- -- 52
2019-10-04 21:00:00 20 0 Calma -- -- 0 -- -- 46
2019-10-04 20:00:00 22.9 0 Calma 6 Sudoeste 0 -- -- 38
2019-10-04 19:00:00 26.4 5 Noroeste 13 Oeste 0 -- -- 32
2019-10-04 18:00:00 30.6 4 Noroeste 21 Sur 0 -- -- 24
2019-10-04 17:00:00 31.3 6 Sur 24 Oeste 0 -- -- 21
2019-10-04 16:00:00 31 5 Sudoeste 19 Sudoeste 0 -- -- 23
2019-10-04 15:00:00 29.8 5 Norte 23 Sur 0 -- -- 27
2019-10-04 14:00:00 27.5 6 Este 11 Sudeste 0 -- -- 34
2019-10-04 13:00:00 24.2 3 Sur 10 Sudeste 0 -- -- 39
2019-10-04 12:00:00 21 2 Sudeste 9 Sur 0 -- -- 45
2019-10-04 11:00:00 17 6 Nordeste 12 Nordeste 0 -- -- 51
2019-10-04 10:00:00 14 0 Calma 6 Este 0 -- -- 63
2019-10-04 09:00:00 9.7 0 Calma 3 Norte 0 -- -- 77
2019-10-04 08:00:00 8.5 2 Norte 3 Norte 0 -- -- 80
2019-10-04 07:00:00 8.9 0 Calma 2 Sur 0 -- -- 78
2019-10-04 06:00:00 9.8 0 Calma 3 Sudeste 0 -- -- 74
2019-10-04 05:00:00 10.8 0 Calma 3 Este 0 -- -- 70
2019-10-04 04:00:00 11.6 0 Calma 5 Sudeste 0 -- -- 66
2019-10-04 03:00:00 13 0 Calma 3 Este 0 -- -- 60
2019-10-04 02:00:00 14.6 0 Calma 6 Sudeste 0 -- -- 54
2019-10-04 01:00:00 16.4 3 Sudeste 15 Sudoeste 0 -- -- 49
2019-10-04 00:00:00 17.8 3 Oeste 8 Oeste 0 -- -- 43
2019-10-03 23:00:00 20.7 4 Sudeste 21 Sur 0 -- -- 38
2019-10-03 22:00:00 24 6 Sudoeste 27 Noroeste 0 -- -- 30
2019-10-03 21:00:00 25.1 13 Noroeste 40 Noroeste 0 -- -- 29
2019-10-03 20:00:00 24.4 5 Nordeste 14 Nordeste 0 -- -- 31
2019-10-03 19:00:00 26.2 5 Este 15 Norte 0 -- -- 30
2019-10-03 18:00:00 28.5 5 Este 23 Noroeste 0 -- -- 24
2019-10-03 17:00:00 28.9 10 Noroeste 33 Norte 0 -- -- 24
2019-10-03 16:00:00 28.3 7 Noroeste 36 Noroeste 0 -- -- 25
2019-10-03 15:00:00 27.4 11 Noroeste 27 Noroeste 0 -- -- 27
2019-10-03 14:00:00 26 10 Oeste 35 Noroeste 0 -- -- 30
2019-10-03 13:00:00 22.9 7 Sur 18 Sudoeste 0 -- -- 36
2019-10-03 12:00:00 20.5 4 Sudeste 11 Sur 0 -- -- 45
2019-10-03 11:00:00 16.7 4 Este 12 Nordeste 0 -- -- 60
2019-10-03 10:00:00 13.6 2 Nordeste 5 Este 0 -- -- 71
2019-10-03 09:00:00 9.8 0 Calma 3 Sudeste 0 -- -- 85
2019-10-03 08:00:00 10 0 Calma 3 Oeste 0 -- -- 83
2019-10-03 07:00:00 10.3 0 Calma 4 Sudoeste 0 -- -- 82
2019-10-03 06:00:00 10.5 0 Calma 6 Sudeste 0 -- -- 81
2019-10-03 05:00:00 11.3 2 Noroeste 8 Sudeste 0 -- -- 77
2019-10-03 04:00:00 11.6 3 Noroeste 6 Norte 0 -- -- 75
2019-10-03 03:00:00 11.6 0 Calma 6 Sudoeste 0 -- -- 74
2019-10-03 02:00:00 12.3 0 Calma 4 Sur 0 -- -- 71
2019-10-03 01:00:00 13.3 0 Calma 6 Sudeste 0 -- -- 68
2019-10-03 00:00:00 14.5 0 Calma 8 Sudeste 0 -- -- 63
2019-10-02 23:00:00 15.9 0 Calma 4 Sudoeste 0 -- -- 58
2019-10-02 22:00:00 17.3 0 Calma 6 Sudeste 0 -- -- 53
2019-10-02 21:00:00 19.8 3 Sur 8 Norte 0 -- -- 46
2019-10-02 20:00:00 23.3 5 Noroeste 15 Noroeste 0 -- -- 36
2019-10-02 19:00:00 25 8 Noroeste 19 Norte 0 -- -- 32
2019-10-02 18:00:00 27.5 10 Norte 25 Norte 0 -- -- 27
2019-10-02 17:00:00 27.8 11 Norte 31 Norte 0 -- -- 26
2019-10-02 16:00:00 27.5 12 Noroeste 28 Oeste 0 -- -- 24
2019-10-02 15:00:00 26.4 13 Oeste 30 Oeste 0 -- -- 27
2019-10-02 14:00:00 24.9 14 Norte 33 Noroeste 0 -- -- 29
2019-10-02 13:00:00 23.1 6 Norte 17 Norte 0 -- -- 38
2019-10-02 12:00:00 21.6 6 Nordeste 12 Nordeste 0 -- -- 47
2019-10-02 11:00:00 20.1 6 Este 14 Norte 0 -- -- 54
2019-10-02 10:00:00 16.8 8 Norte 15 Norte 0 -- -- 63
2019-10-02 09:00:00 15.7 0 Calma 4 Sudoeste 0 -- -- 67
2019-10-02 08:00:00 14.3 0 Calma 10 Norte 0 -- -- 69
2019-10-02 07:00:00 14.6 3 Norte 9 Norte 0 -- -- 69
2019-10-02 06:00:00 16.3 6 Norte 11 Norte 0 -- -- 61
2019-10-02 05:00:00 16.5 3 Norte 10 Nordeste 0 -- -- 60
2019-10-02 04:00:00 19.2 5 Norte 31 Oeste 0 -- -- 51
2019-10-02 03:00:00 21.8 10 Sudoeste 26 Oeste 0 -- -- 44
2019-10-02 02:00:00 22.4 17 Sudoeste 40 Oeste 0 -- -- 40
2019-10-02 01:00:00 22 0 Calma 28 Sudoeste 0 -- -- 40
2019-10-02 00:00:00 23.7 13 Sudoeste 26 Sudoeste 0 -- -- 35
2019-10-01 23:00:00 24.5 7 Oeste 15 Noroeste 0 -- -- 30
2019-10-01 22:00:00 24.9 6 Oeste 17 Oeste 0 -- -- 25
2019-10-01 21:00:00 26.2 8 Oeste 20 Noroeste 0 -- -- 27
2019-10-01 20:00:00 25.9 4 Noroeste 19 Oeste 0 -- -- 31
2019-10-01 19:00:00 -- -- -- -- -- -- -- -- --
2019-10-01 18:00:00 -- -- -- -- -- -- -- -- --
2019-10-01 17:00:00 -- -- -- -- -- -- -- -- --
2019-10-01 16:00:00 -- -- -- -- -- -- -- -- --
2019-10-01 15:00:00 -- -- -- -- -- -- -- -- --
2019-10-01 14:00:00 -- -- -- -- -- -- -- -- --
2019-10-01 13:00:00 -- -- -- -- -- -- -- -- --
2019-10-01 12:00:00 -- -- -- -- -- -- -- -- --
2019-10-01 11:00:00 -- -- -- -- -- -- -- -- --
2019-10-01 10:00:00 -- -- -- -- -- -- -- -- --
2019-10-01 09:00:00 -- -- -- -- -- -- -- -- --
2019-10-01 08:00:00 -- -- -- -- -- -- -- -- --
2019-10-01 07:00:00 -- -- -- -- -- -- -- -- --
2019-10-01 06:00:00 -- -- -- -- -- -- -- -- --
2019-10-01 05:00:00 -- -- -- -- -- -- -- -- --
2019-10-01 04:00:00 -- -- -- -- -- -- -- -- --
2019-10-01 03:00:00 -- -- -- -- -- -- -- -- --
2019-10-01 02:00:00 -- -- -- -- -- -- -- -- --
2019-10-01 01:00:00 -- -- -- -- -- -- -- -- --
2019-10-01 00:00:00 -- -- -- -- -- -- -- -- --
2019-09-30 23:00:00 -- -- -- -- -- -- -- -- --
2019-09-30 22:00:00 -- -- -- -- -- -- -- -- --
2019-09-30 21:00:00 -- -- -- -- -- -- -- -- --
2019-09-30 20:00:00 -- -- -- -- -- -- -- -- --
2019-09-30 19:00:00 -- -- -- -- -- -- -- -- --
2019-09-30 18:00:00 -- -- -- -- -- -- -- -- --
2019-09-30 17:00:00 -- -- -- -- -- -- -- -- --
2019-09-30 16:00:00 -- -- -- -- -- -- -- -- --
2019-09-30 15:00:00 -- -- -- -- -- -- -- -- --
2019-09-30 14:00:00 29.2 9 Noroeste 15 Noroeste 0 -- -- 32
2019-09-30 13:00:00 26.3 4 Sudeste 10 Sudeste 0 -- -- 41
2019-09-30 12:00:00 23 2 Sudoeste 6 Sudeste 0 -- -- 47
2019-09-30 11:00:00 19.2 2 Nordeste 6 Este 0 -- -- 55
2019-09-30 10:00:00 15.6 2 Este 5 Este 0 -- -- 65
2019-09-30 09:00:00 11.7 0 Calma 2 Nordeste 0 -- -- 83
2019-09-30 08:00:00 10.2 0 Calma 2 Sudoeste 0 -- -- 85
2019-09-30 07:00:00 10.6 0 Calma 2 Noroeste 0 -- -- 84
2019-09-30 06:00:00 11.3 0 Calma 3 Sur 0 -- -- 80
2019-09-30 05:00:00 12.1 0 Calma 2 Sudoeste 0 -- -- 78
2019-09-30 04:00:00 12.8 0 Calma 2 Sudoeste 0 -- -- 75
2019-09-30 03:00:00 13.6 0 Calma 2 Norte 0 -- -- 72
2019-09-30 02:00:00 14.5 0 Calma 4 Sur 0 -- -- 68
2019-09-30 01:00:00 15.8 0 Calma -- -- 0 -- -- 63
2019-09-30 00:00:00 17.2 0 Calma 2 Norte 0 -- -- 58
2019-09-29 23:00:00 18.9 0 Calma 4 Norte 0 -- -- 51
2019-09-29 22:00:00 20.2 0 Calma 4 Norte 0 -- -- 48
2019-09-29 21:00:00 22.2 0 Calma 3 Sudeste 0 -- -- 44
2019-09-29 20:00:00 25.4 0 Calma 14 Noroeste 0 -- -- 36
2019-09-29 19:00:00 28.9 6 Noroeste 19 Noroeste 0 -- -- 27
2019-09-29 18:00:00 32.3 11 Noroeste 27 Noroeste 0 -- -- 20
2019-09-29 17:00:00 33.2 6 Oeste 26 Sudoeste 0 -- -- 21
2019-09-29 16:00:00 32.6 9 Sur 21 Sur 0 -- -- 21
2019-09-29 15:00:00 31.2 5 Nordeste 14 Noroeste 0 -- -- 26
2019-09-29 14:00:00 27.4 5 Nordeste 15 Norte 0 -- -- 52
2019-09-29 13:00:00 24.6 3 Oeste 12 Norte 0 -- -- 64
2019-09-29 12:00:00 21.2 7 Nordeste 12 Norte 0 -- -- 76
2019-09-29 11:00:00 18.3 3 Sudeste 6 Este 0 -- -- 85
2019-09-29 10:00:00 16.6 4 Sudeste 6 Sudeste 0 -- -- 89
2019-09-29 09:00:00 15.9 0 Calma 3 Sudeste 0 -- -- 91
2019-09-29 08:00:00 15.6 0 Calma 3 Sudeste 0 -- -- 91
2019-09-29 07:00:00 16 2 Sudeste 2 Sudeste 0 -- -- 94
2019-09-29 06:00:00 15.7 0 Calma 2 Sudeste 0 -- -- 94
2019-09-29 05:00:00 15.5 0 Calma 2 Este 0 -- -- 93
2019-09-29 04:00:00 15.9 0 Calma 2 Sudoeste 0 -- -- 92
2019-09-29 03:00:00 16.5 0 Calma 2 Sudeste 0 -- -- 91
2019-09-29 02:00:00 17.1 0 Calma 2 Sudeste 0 -- -- 88
2019-09-29 01:00:00 18.1 0 Calma 3 Sur 0 -- -- 88
2019-09-29 00:00:00 18.9 0 Calma 3 Sur 0 -- -- 86
2019-09-28 23:00:00 20 0 Calma 3 Oeste 0 -- -- 83
2019-09-28 22:00:00 21.1 0 Calma -- -- 0 -- -- 79
2019-09-28 21:00:00 22.5 0 Calma 6 Sudeste 0 -- -- 74
2019-09-28 20:00:00 24.4 2 Sudeste 15 Este 0 -- -- 68
2019-09-28 19:00:00 26.4 3 Sudeste 18 Sudeste 0 -- -- 62
2019-09-28 18:00:00 28.1 8 Este 25 Noroeste 0 -- -- 55
2019-09-28 17:00:00 28.2 12 Norte 29 Norte 0 -- -- 54
2019-09-28 16:00:00 28.4 12 Norte 24 Noroeste 0 -- -- 53
2019-09-28 15:00:00 27.8 15 Norte 26 Norte 0 -- -- 55
2019-09-28 14:00:00 26.8 14 Norte 24 Norte 0 -- -- 57
2019-09-28 13:00:00 25.6 11 Norte 21 Noroeste 0 -- -- 61
2019-09-28 12:00:00 23.8 7 Norte 17 Norte 0 -- -- 64
2019-09-28 11:00:00 20.7 3 Sudeste 6 Este 0 -- -- 58
2019-09-28 10:00:00 16.8 3 Este 5 Este 0 -- -- 70
2019-09-28 09:00:00 13.1 0 Calma 2 Nordeste 0 -- -- 86
2019-09-28 08:00:00 11.4 0 Calma 2 Sudeste 0 -- -- 89
2019-09-28 07:00:00 11.8 0 Calma 2 Sudoeste 0 -- -- 87
2019-09-28 06:00:00 12.3 0 Calma 4 Sudeste 0 -- -- 86
2019-09-28 05:00:00 13 0 Calma 2 Sudoeste 0 -- -- 84
2019-09-28 04:00:00 13.5 0 Calma 5 Oeste 0 -- -- 82
2019-09-28 03:00:00 14.3 0 Calma 2 Sudeste 0 -- -- 79
2019-09-28 02:00:00 15 0 Calma 3 Sudoeste 0 -- -- 76
2019-09-28 01:00:00 15.9 0 Calma 4 Sudeste 0 -- -- 73
2019-09-28 00:00:00 17.4 0 Calma 3 Sudeste 0 -- -- 67
2019-09-27 23:00:00 19.1 0 Calma 4 Norte 0 -- -- 61
2019-09-27 22:00:00 20.7 0 Calma 3 Norte 0 -- -- 53
2019-09-27 21:00:00 22.5 0 Calma 2 Este 0 -- -- 50
2019-09-27 20:00:00 25.6 0 Calma 10 Noroeste 0 -- -- 43
2019-09-27 19:00:00 28.6 5 Noroeste 11 Noroeste 0 -- -- 34
2019-09-27 18:00:00 32 4 Oeste 20 Sudeste 0 -- -- 27
2019-09-27 17:00:00 31.7 10 Sur 28 Sur 0 -- -- 28
2019-09-27 16:00:00 31.1 13 Sur 31 Sudoeste 0 -- -- 30
2019-09-27 15:00:00 31.2 8 Nordeste 26 Sur 0 -- -- 29
2019-09-27 14:00:00 29.5 5 Noroeste 11 Sur 0 -- -- 35
2019-09-27 13:00:00 26.9 5 Sudeste 10 Sudeste 0 -- -- 55
2019-09-27 12:00:00 24.1 4 Sudeste 9 Sudeste 0 -- -- 62
2019-09-27 11:00:00 21.2 3 Sudeste 6 Sudeste 0 -- -- 72
2019-09-27 10:00:00 18.2 0 Calma 5 Este 0 -- -- 82
2019-09-27 09:00:00 14.8 0 Calma 2 Sudeste 0 -- -- 94
2019-09-27 08:00:00 13.6 0 Calma 2 Noroeste 0 -- -- 94
2019-09-27 07:00:00 13.9 0 Calma 2 Sudeste 0 -- -- 93
2019-09-27 06:00:00 14.5 0 Calma 0 Calma 0 -- -- 92
2019-09-27 05:00:00 14.9 0 Calma 5 Sudoeste 0 -- -- 92
2019-09-27 04:00:00 15.4 0 Calma 0 Calma 0 -- -- 91
2019-09-27 03:00:00 16 0 Calma 2 Sudoeste 0 -- -- 90
2019-09-27 02:00:00 16.6 0 Calma 2 Sur 0 -- -- 89
2019-09-27 01:00:00 17.5 0 Calma 3 Norte 0 -- -- 87
2019-09-27 00:00:00 18.9 0 Calma 4 Norte 0 -- -- 83
2019-09-26 23:00:00 20.3 0 Calma 6 Noroeste 0 -- -- 79
2019-09-26 22:00:00 22.5 4 Norte 14 Noroeste 0 -- -- 76
2019-09-26 21:00:00 23.9 10 Noroeste 29 Noroeste 0 -- -- 71
2019-09-26 20:00:00 25.5 13 Noroeste 21 Noroeste 0 -- -- 63
2019-09-26 19:00:00 28.3 0 Calma 16 Sudeste 0 -- -- 41
2019-09-26 18:00:00 30.6 5 Sudeste 12 Sudeste 0 -- -- 34
2019-09-26 17:00:00 30.6 5 Sudeste 13 Este 0 -- -- 35
2019-09-26 16:00:00 29.9 5 Sudoeste 16 Norte 0 -- -- 37
2019-09-26 15:00:00 29.2 5 Sudeste 11 Sur 0 -- -- 39
2019-09-26 14:00:00 27.5 4 Oeste 12 Sudeste 0 -- -- 45
2019-09-26 13:00:00 25.3 6 Sudeste 10 Este 0 -- -- 51
2019-09-26 12:00:00 23 3 Sudeste 9 Este 0 -- -- 59
2019-09-26 11:00:00 20 4 Nordeste 9 Este 0 -- -- 69
2019-09-26 10:00:00 17.2 2 Este 6 Este 0 -- -- 77
2019-09-26 09:00:00 13.3 0 Calma 3 Sudeste 0 -- -- 93
2019-09-26 08:00:00 12.6 0 Calma 2 Noroeste 0 -- -- 92
2019-09-26 07:00:00 13.2 0 Calma 2 Norte 0 -- -- 91
2019-09-26 06:00:00 13.5 0 Calma 4 Sudeste 0 -- -- 90
2019-09-26 05:00:00 14.2 0 Calma 4 Sudeste 0 -- -- 88
2019-09-26 04:00:00 14.9 0 Calma 2 Nordeste 0 -- -- 87
2019-09-26 03:00:00 15.4 0 Calma 3 Noroeste 0 -- -- 86
2019-09-26 02:00:00 15.7 0 Calma 4 Sudeste 0 -- -- 85
2019-09-26 01:00:00 16.4 0 Calma 3 Norte 0 -- -- 83
2019-09-26 00:00:00 17.4 0 Calma 2 Norte 0 -- -- 78
2019-09-25 23:00:00 18.5 0 Calma 10 Noroeste 0 -- -- 72
2019-09-25 22:00:00 21 6 Noroeste 16 Noroeste 0 -- -- 76
2019-09-25 21:00:00 21.9 9 Noroeste 13 Noroeste 0 -- -- 67
2019-09-25 20:00:00 23.6 6 Noroeste 10 Noroeste 0 -- -- 44
2019-09-25 19:00:00 25.9 3 Noroeste 24 Noroeste 0 -- -- 39
2019-09-25 18:00:00 27.9 6 Noroeste 21 Noroeste 0 -- -- 36
2019-09-25 17:00:00 27.9 6 Norte 32 Noroeste 0 -- -- 38
2019-09-25 16:00:00 27.6 9 Noroeste 26 Sudoeste 0 -- -- 39
2019-09-25 15:00:00 27.4 6 Sur 41 Oeste 0 -- -- 40
2019-09-25 14:00:00 26.7 8 Sudoeste 31 Noroeste 0 -- -- 42
2019-09-25 13:00:00 25.5 9 Norte 27 Oeste 0 -- -- 46
2019-09-25 12:00:00 24.8 8 Oeste 28 Sudoeste 0 -- -- 52
2019-09-25 11:00:00 23.7 5 Nordeste 15 Sudeste 0 -- -- 59
2019-09-25 10:00:00 21.2 6 Norte 11 Nordeste 0 -- -- 68
2019-09-25 09:00:00 19.6 5 Este 13 Este 0 -- -- 74
2019-09-25 08:00:00 18.1 7 Norte 22 Sudoeste 0 -- -- 76
2019-09-25 07:00:00 19 6 Sudoeste 23 Oeste 0 -- -- 72
2019-09-25 06:00:00 16.9 0 Calma 9 Sudeste 0 -- -- 75
2019-09-25 05:00:00 17.3 0 Calma 10 Sudoeste 0 -- -- 71
2019-09-25 04:00:00 17.8 3 Nordeste 14 Oeste 0 -- -- 67
2019-09-25 03:00:00 17.8 0 Calma 9 Norte 0 -- -- 64
2019-09-25 02:00:00 17.8 2 Norte 27 Sudoeste 0 -- -- 62
2019-09-25 01:00:00 18.6 8 Sur 23 Sur 0 -- -- 56
2019-09-25 00:00:00 17 0 Calma 3 Sudoeste 0 -- -- 65
2019-09-24 23:00:00 18.1 0 Calma 4 Noroeste 0 -- -- 61
2019-09-24 22:00:00 19.4 0 Calma 4 Este 0 -- -- 57
2019-09-24 21:00:00 22.3 2 Sudeste 8 Noroeste 0 -- -- 47
2019-09-24 20:00:00 26.4 3 Noroeste 23 Oeste 0 -- -- 35
2019-09-24 19:00:00 28.3 6 Noroeste 28 Noroeste 0 -- -- 29
2019-09-24 18:00:00 30 12 Noroeste 34 Noroeste 0 -- -- 28
2019-09-24 17:00:00 30.3 9 Noroeste 26 Noroeste 0 -- -- 28
2019-09-24 16:00:00 30 12 Nordeste 39 Noroeste 0 -- -- 29
2019-09-24 15:00:00 29.7 8 Sudeste 23 Sudoeste 0 -- -- 33
2019-09-24 14:00:00 28.3 6 Sur 25 Noroeste 0 -- -- 35
2019-09-24 13:00:00 27.1 11 Norte 29 Noroeste 0 -- -- 37
2019-09-24 12:00:00 25.1 7 Este 13 Sudeste 0 -- -- 44
2019-09-24 11:00:00 20.5 2 Sudeste 8 Sur 0 -- -- 63
2019-09-24 10:00:00 17.5 2 Este 4 Este 0 -- -- 72
2019-09-24 09:00:00 13.8 0 Calma 3 Este 0 -- -- 87
2019-09-24 08:00:00 11.8 0 Calma 5 Norte 0 -- -- 91
2019-09-24 07:00:00 12 0 Calma 3 Noroeste 0 -- -- 91
2019-09-24 06:00:00 12.5 0 Calma 3 Noroeste 0 -- -- 89
2019-09-24 05:00:00 13 0 Calma 3 Este 0 -- -- 87
2019-09-24 04:00:00 13.4 0 Calma 4 Noroeste 0 -- -- 85
2019-09-24 03:00:00 14.1 2 Nordeste 4 Sudeste 0 -- -- 83
2019-09-24 02:00:00 15 0 Calma 3 Nordeste 0 -- -- 79
2019-09-24 01:00:00 15.7 0 Calma 5 Sudeste 0 -- -- 77
2019-09-24 00:00:00 17.2 0 Calma 5 Noroeste 0 -- -- 68
2019-09-23 23:00:00 18 0 Calma 4 Norte 0 -- -- 67
2019-09-23 22:00:00 18.8 0 Calma 3 Norte 0 -- -- 66
2019-09-23 21:00:00 20.9 0 Calma 7 Noroeste 0 -- -- 59
2019-09-23 20:00:00 23.4 5 Noroeste 8 Oeste 0 -- -- 45
2019-09-23 19:00:00 25.6 0 Calma 14 Sur 0 -- -- 42
2019-09-23 18:00:00 26.8 9 Noroeste 21 Noroeste 0 -- -- 34
2019-09-23 17:00:00 27.6 5 Noroeste 22 Noroeste 0 -- -- 33
2019-09-23 16:00:00 27.2 10 Noroeste 32 Sudeste 0 -- -- 33
2019-09-23 15:00:00 26.8 8 Sudeste 14 Sudeste 0 -- -- 37
2019-09-23 14:00:00 25.4 6 Este 14 Nordeste 0 -- -- 42
2019-09-23 13:00:00 24.3 5 Nordeste 12 Nordeste 0 -- -- 47
2019-09-23 12:00:00 22 5 Sudeste 10 Sudeste 0 -- -- 56
2019-09-23 11:00:00 19.1 3 Sudeste 10 Nordeste 0 -- -- 66
2019-09-23 10:00:00 16.8 2 Este 8 Nordeste 0 -- -- 76
2019-09-23 09:00:00 13.6 0 Calma 4 Norte 0 -- -- 88
2019-09-23 08:00:00 12 2 Noroeste 4 Sudeste 0 -- -- 91
2019-09-23 07:00:00 12.7 0 Calma 4 Noroeste 0 -- -- 88
2019-09-23 06:00:00 13.4 0 Calma 5 Este 0 -- -- 85
2019-09-23 05:00:00 14.3 0 Calma 6 Noroeste 0 -- -- 82
2019-09-23 04:00:00 15.8 0 Calma 5 Norte 0 -- -- 75
2019-09-23 03:00:00 17.7 0 Calma 15 Sudoeste 0 -- -- 67
2019-09-23 02:00:00 19.7 3 Oeste 28 Sudoeste 0 -- -- 58
2019-09-23 01:00:00 18.5 2 Oeste 10 Sur 0 -- -- 63
2019-09-23 00:00:00 20.9 4 Oeste 28 Oeste 0 -- -- 56
2019-09-22 23:00:00 21.8 10 Oeste 26 Oeste 0 -- -- 53
2019-09-22 22:00:00 22.1 5 Norte 23 Sudoeste 0 -- -- 56
2019-09-22 21:00:00 22.7 5 Noroeste 25 Noroeste 0 -- -- 58
2019-09-22 20:00:00 24.2 13 Noroeste 29 Noroeste 0 -- -- 56
2019-09-22 19:00:00 25.9 12 Noroeste 28 Noroeste 0 -- -- 56
2019-09-22 18:00:00 27.5 9 Norte 26 Noroeste 0 -- -- 48
2019-09-22 17:00:00 28.4 8 Este 30 Noroeste 0 -- -- 44
2019-09-22 16:00:00 27.8 6 Nordeste 31 Noroeste 0 -- -- 50
2019-09-22 15:00:00 26.8 12 Noroeste 37 Norte 0 -- -- 53
2019-09-22 14:00:00 25.3 12 Noroeste 36 Norte 0 -- -- 57
2019-09-22 13:00:00 24.8 8 Sur 28 Sudeste 0 -- -- 58
2019-09-22 12:00:00 24.1 9 Noroeste 29 Noroeste 0 -- -- 60
2019-09-22 11:00:00 24.2 7 Norte 16 Este 0 -- -- 60
2019-09-22 10:00:00 22.5 7 Este 28 Noroeste 0 -- -- 68
2019-09-22 09:00:00 17.7 0 Calma 6 Sudeste 0 -- -- 95
2019-09-22 08:00:00 17 0 Calma 6 Sur 0 -- -- 94
2019-09-22 07:00:00 17.4 3 Norte 6 Noroeste 0 -- -- 94
2019-09-22 06:00:00 17.2 3 Sudeste 6 Sur 0 -- -- 94
2019-09-22 05:00:00 17.3 0 Calma 4 Sudeste 0 -- -- 93
2019-09-22 04:00:00 17.9 0 Calma 4 Este 0 -- -- 92
2019-09-22 03:00:00 18.4 0 Calma 2 Norte 0 -- -- 92
2019-09-22 02:00:00 18.9 0 Calma 4 Sudoeste 0 -- -- 91
2019-09-22 01:00:00 19.6 0 Calma 3 Norte 0 -- -- 90
2019-09-22 00:00:00 19.8 0 Calma 3 Sudeste 0 -- -- 91
2019-09-21 23:00:00 20.1 0 Calma 5 Sur 0.2 -- -- 90
2019-09-21 22:00:00 20.2 0 Calma 4 Sudoeste 0 -- -- 89
2019-09-21 21:00:00 20.9 2 Oeste 11 Oeste 1.2 -- -- 83
2019-09-21 20:00:00 24 3 Sudoeste 5 Sudoeste 0 -- -- 61
2019-09-21 19:00:00 26.4 3 Noroeste 15 Sur 0 -- -- 51
2019-09-21 18:00:00 27.1 8 Sur 15 Sur 0 -- -- 46
2019-09-21 17:00:00 27.2 8 Sur 19 Sur 0 -- -- 48
2019-09-21 16:00:00 26.2 4 Sudeste 12 Este 0 -- -- 58
2019-09-21 15:00:00 26.2 6 Norte 13 Este 0.2 -- -- 57
2019-09-21 14:00:00 25.1 4 Sudeste 14 Sudeste 0 -- -- 66
2019-09-21 13:00:00 22.3 2 Norte 16 Norte 0.8 -- -- 80
2019-09-21 12:00:00 23.8 3 Noroeste 8 Nordeste 0 -- -- 69
2019-09-21 11:00:00 21 5 Norte 10 Nordeste 0 -- -- 77
2019-09-21 10:00:00 20.8 4 Este 9 Nordeste 0 -- -- 86
2019-09-21 09:00:00 17.9 0 Calma 4 Sur 0 -- -- 95
2019-09-21 08:00:00 17.3 0 Calma 5 Sudeste 0 -- -- 95
2019-09-21 07:00:00 17.2 0 Calma 3 Nordeste 0 -- -- 94
2019-09-21 06:00:00 17.3 0 Calma 5 Sudeste 0 -- -- 94
2019-09-21 05:00:00 17.7 3 Sudoeste 8 Sudeste 0 -- -- 93
2019-09-21 04:00:00 18.2 0 Calma 6 Oeste 0 -- -- 91
2019-09-21 03:00:00 19.5 0 Calma 5 Sudoeste 0 -- -- 87
2019-09-21 02:00:00 20.5 0 Calma 6 Norte 0 -- -- 85
2019-09-21 01:00:00 20.4 2 Oeste 6 Sudoeste 0 -- -- 85
2019-09-21 00:00:00 21 4 Oeste 15 Norte 0 -- -- 81
2019-09-20 23:00:00 20.8 8 Norte 12 Noroeste 0 -- -- 81
2019-09-20 22:00:00 21 0 Calma 4 Sur 0 -- -- 81
2019-09-20 21:00:00 21.5 0 Calma 6 Nordeste 0 -- -- 78
2019-09-20 20:00:00 22.4 4 Este 19 Sur 0 -- -- 72
2019-09-20 19:00:00 23 6 Sudeste 17 Sudeste 0 -- -- 70
2019-09-20 18:00:00 23.4 2 Norte 17 Norte 0 -- -- 70
2019-09-20 17:00:00 23.7 4 Norte 16 Nordeste 0 -- -- 70
2019-09-20 16:00:00 24.1 8 Nordeste 18 Este 0 -- -- 67
2019-09-20 15:00:00 24.5 5 Sudeste 19 Este 0 -- -- 66
2019-09-20 14:00:00 23.5 6 Norte 24 Norte 0 -- -- 71
2019-09-20 13:00:00 23.1 8 Norte 18 Norte 0 -- -- 72
2019-09-20 12:00:00 22.6 8 Norte 18 Nordeste 0 -- -- 74
2019-09-20 11:00:00 21.9 8 Norte 18 Nordeste 0 -- -- 77
2019-09-20 10:00:00 20 8 Norte 13 Noroeste 0 -- -- 84
2019-09-20 09:00:00 17.5 0 Calma 3 Sudeste 0 -- -- 94
2019-09-20 08:00:00 16.8 0 Calma 3 Sur 0 -- -- 94
2019-09-20 07:00:00 16.4 0 Calma 4 Sudeste 0 -- -- 94
2019-09-20 06:00:00 16.2 0 Calma 4 Sudeste 0 -- -- 93
2019-09-20 05:00:00 16.2 0 Calma 4 Este 0 -- -- 93
2019-09-20 04:00:00 16.4 0 Calma 4 Este 0 -- -- 92
2019-09-20 03:00:00 16.5 0 Calma 3 Este 0 -- -- 91
2019-09-20 02:00:00 16.8 0 Calma 5 Sudeste 0 -- -- 90
2019-09-20 01:00:00 17.8 0 Calma 6 Este 0 -- -- 88
2019-09-20 00:00:00 18.8 0 Calma 8 Noroeste 0 -- -- 85
2019-09-19 23:00:00 20.2 6 Noroeste 12 Noroeste 0 -- -- 80
2019-09-19 22:00:00 21.2 8 Noroeste 12 Norte 0 -- -- 75
2019-09-19 21:00:00 22.2 6 Noroeste 14 Noroeste 0 -- -- 73
2019-09-19 20:00:00 24.3 6 Este 14 Este 0 -- -- 67
2019-09-19 19:00:00 26 6 Este 14 Sudeste 0 -- -- 60
2019-09-19 18:00:00 27.2 5 Sudeste 18 Este 0 -- -- 53
2019-09-19 17:00:00 26.5 11 Norte 22 Nordeste 0 -- -- 55
2019-09-19 16:00:00 28.9 8 Norte 21 Noroeste 0 -- -- 45
2019-09-19 15:00:00 29.5 5 Sur 17 Este 0 -- -- 40
2019-09-19 14:00:00 29 6 Este 16 Sudeste 0 -- -- 42
2019-09-19 13:00:00 27.1 4 Oeste 11 Noroeste 0 -- -- 47
2019-09-19 12:00:00 24.9 5 Norte 13 Nordeste 0 -- -- 52
2019-09-19 11:00:00 21.8 3 Este 6 Este 0 -- -- 71
2019-09-19 10:00:00 18.6 3 Este 8 Nordeste 0 -- -- 83
2019-09-19 09:00:00 15.8 0 Calma 4 Este 0 -- -- 94
2019-09-19 08:00:00 14.7 0 Calma 2 Nordeste 0 -- -- 94
2019-09-19 07:00:00 15 0 Calma 3 Sudeste 0 -- -- 93
2019-09-19 06:00:00 15.5 0 Calma -- -- 0 -- -- 93
2019-09-19 05:00:00 16 0 Calma -- -- 0 -- -- 92
2019-09-19 04:00:00 16.5 0 Calma 4 Sudeste 0 -- -- 91
2019-09-19 03:00:00 17 0 Calma 2 Sudoeste 0 -- -- 89
2019-09-19 02:00:00 17.6 0 Calma 4 Sudeste 0 -- -- 88
2019-09-19 01:00:00 18.8 0 Calma 2 Sudeste 0 -- -- 83
2019-09-19 00:00:00 20.1 0 Calma 9 Noroeste 0 -- -- 78